createdAt,value
2016-07-28T00:00:19.346Z,0
2016-07-28T00:01:19.334Z,0
2016-07-28T00:02:19.337Z,0
2016-07-28T00:03:19.335Z,0
2016-07-28T00:04:20.029Z,0
2016-07-28T00:05:19.358Z,0
2016-07-28T00:06:19.340Z,0
2016-07-28T00:07:19.333Z,0
2016-07-28T00:08:21.314Z,0
2016-07-28T00:09:24.235Z,0
2016-07-28T00:10:20.975Z,0
2016-07-28T00:12:20.513Z,0
2016-07-28T00:13:20.128Z,0
2016-07-28T00:14:19.384Z,0
2016-07-28T00:15:19.338Z,0
2016-07-28T00:16:19.325Z,0
2016-07-28T00:17:21.255Z,0
2016-07-28T00:18:22.340Z,0
2016-07-28T00:19:21.763Z,0
2016-07-28T00:20:21.044Z,0
2016-07-28T00:21:20.166Z,0
2016-07-28T00:22:20.886Z,0
2016-07-28T00:23:19.896Z,0
2016-07-28T00:24:19.321Z,0
2016-07-28T00:25:19.401Z,0
2016-07-28T00:26:19.318Z,0
2016-07-28T00:27:19.318Z,0
2016-07-28T00:28:19.314Z,0
2016-07-28T00:29:19.314Z,0
2016-07-28T00:30:19.312Z,0
2016-07-28T00:34:20.068Z,0
2016-07-28T00:36:19.310Z,0
2016-07-28T00:37:19.312Z,0
2016-07-28T00:38:19.663Z,0
2016-07-28T00:39:19.304Z,0
2016-07-28T00:40:21.160Z,0
2016-07-28T00:41:34.518Z,0
2016-07-28T00:42:20.152Z,0
2016-07-28T00:43:19.899Z,0
2016-07-28T00:44:34.214Z,0
2016-07-28T00:45:19.557Z,0
2016-07-28T00:46:19.453Z,0
2016-07-28T00:47:19.308Z,0
2016-07-28T00:48:19.295Z,0
2016-07-28T00:49:19.291Z,0
2016-07-28T00:50:19.392Z,0
2016-07-28T00:51:19.295Z,0
2016-07-28T00:52:19.287Z,0
2016-07-28T00:53:19.296Z,0
2016-07-28T00:54:19.295Z,0
2016-07-28T00:55:19.294Z,0
2016-07-28T00:56:19.285Z,0
2016-07-28T00:57:19.288Z,0
2016-07-28T00:58:19.286Z,0
2016-07-28T00:59:19.294Z,0
2016-07-28T01:00:19.289Z,0
2016-07-28T01:01:19.300Z,0
2016-07-28T01:02:19.280Z,0
2016-07-28T01:03:19.293Z,0
2016-07-28T01:04:19.285Z,0
2016-07-28T01:05:19.286Z,0
2016-07-28T01:06:19.295Z,0
2016-07-28T01:07:19.283Z,0
2016-07-28T01:08:19.272Z,0
2016-07-28T01:09:19.286Z,0
2016-07-28T01:10:19.278Z,0
2016-07-28T01:11:19.275Z,0
2016-07-28T01:12:19.275Z,0
2016-07-28T01:13:19.280Z,0
2016-07-28T01:14:19.273Z,0
2016-07-28T01:15:19.279Z,0
2016-07-28T01:16:19.272Z,0
2016-07-28T01:17:19.283Z,0
2016-07-28T01:18:19.268Z,0
2016-07-28T01:19:19.276Z,0
2016-07-28T01:20:19.269Z,0
2016-07-28T01:21:19.267Z,0
2016-07-28T01:22:19.273Z,0
2016-07-28T01:23:19.274Z,0
2016-07-28T01:24:19.277Z,0
2016-07-28T01:25:19.271Z,0
2016-07-28T01:26:22.302Z,0
2016-07-28T01:28:22.274Z,0
2016-07-28T01:29:19.965Z,0
2016-07-28T01:30:21.430Z,0
2016-07-28T01:31:19.622Z,0
2016-07-28T01:32:19.584Z,0
2016-07-28T01:33:19.266Z,0
2016-07-28T01:34:19.273Z,0
2016-07-28T01:35:21.400Z,0
2016-07-28T01:36:22.030Z,0
2016-07-28T01:37:20.702Z,0
2016-07-28T01:38:20.986Z,0
2016-07-28T01:39:20.785Z,0
2016-07-28T01:40:19.427Z,0
2016-07-28T01:41:19.802Z,0
2016-07-28T01:42:19.448Z,0
2016-07-28T01:43:19.252Z,0
2016-07-28T01:44:19.256Z,0
2016-07-28T01:45:19.258Z,0
2016-07-28T01:46:19.259Z,0
2016-07-28T01:47:19.270Z,0
2016-07-28T01:48:19.246Z,0
2016-07-28T01:49:21.503Z,0
2016-07-28T01:50:19.805Z,0
2016-07-28T01:51:19.607Z,0
2016-07-28T01:53:19.595Z,0
2016-07-28T01:54:21.007Z,0
2016-07-28T01:55:19.241Z,0
2016-07-28T01:56:19.249Z,0
2016-07-28T01:57:19.241Z,0
2016-07-28T01:58:34.709Z,0
2016-07-28T02:00:49.674Z,0
2016-07-28T02:02:19.595Z,0
2016-07-28T02:03:19.250Z,0
2016-07-28T02:04:19.533Z,0
2016-07-28T02:05:19.699Z,0
2016-07-28T02:06:19.233Z,0
2016-07-28T02:07:19.227Z,0
2016-07-28T02:08:19.238Z,0
2016-07-28T02:09:19.229Z,0
2016-07-28T02:10:19.238Z,0
2016-07-28T02:11:19.237Z,0
2016-07-28T02:12:19.238Z,0
2016-07-28T02:13:19.228Z,0
2016-07-28T02:14:19.221Z,0
2016-07-28T02:15:19.222Z,0
2016-07-28T02:16:19.224Z,0
2016-07-28T02:17:19.239Z,0
2016-07-28T02:18:19.223Z,0
2016-07-28T02:19:19.222Z,0
2016-07-28T02:20:19.225Z,0
2016-07-28T02:21:19.919Z,0
2016-07-28T02:22:19.224Z,0
2016-07-28T02:23:19.221Z,0
2016-07-28T02:24:19.238Z,0
2016-07-28T02:25:19.233Z,0
2016-07-28T02:26:19.218Z,0
2016-07-28T02:27:19.218Z,0
2016-07-28T02:28:19.220Z,0
2016-07-28T02:29:19.224Z,0
2016-07-28T02:30:19.214Z,0
2016-07-28T02:31:19.220Z,0
2016-07-28T02:32:19.223Z,0
2016-07-28T02:33:19.214Z,0
2016-07-28T02:34:19.209Z,0
2016-07-28T02:35:19.215Z,0
2016-07-28T02:36:19.216Z,0
2016-07-28T02:37:19.208Z,0
2016-07-28T02:38:19.209Z,0
2016-07-28T02:39:19.210Z,0
2016-07-28T02:40:19.212Z,0
2016-07-28T02:41:19.206Z,0
2016-07-28T02:42:19.207Z,0
2016-07-28T02:43:19.202Z,0
2016-07-28T02:44:20.729Z,0
2016-07-28T02:45:22.020Z,0
2016-07-28T02:46:21.199Z,0
2016-07-28T02:47:19.836Z,0
2016-07-28T02:48:19.262Z,0
2016-07-28T02:49:21.203Z,0
2016-07-28T02:50:19.434Z,0
2016-07-28T02:51:19.550Z,0
2016-07-28T02:52:19.207Z,0
2016-07-28T02:53:19.193Z,0
2016-07-28T02:54:21.546Z,0
2016-07-28T02:55:22.873Z,0
2016-07-28T02:56:20.642Z,0
2016-07-28T02:57:21.484Z,0
2016-07-28T02:58:20.881Z,0
2016-07-28T02:59:19.452Z,0
2016-07-28T03:00:19.194Z,0
2016-07-28T03:01:19.196Z,0
2016-07-28T03:02:19.202Z,0
2016-07-28T03:03:19.186Z,0
2016-07-28T03:04:19.881Z,0
2016-07-28T03:05:19.202Z,0
2016-07-28T03:06:19.188Z,0
2016-07-28T03:07:19.192Z,0
2016-07-28T03:08:34.548Z,0
2016-07-28T03:09:35.452Z,0
2016-07-28T03:10:20.049Z,0
2016-07-28T03:11:34.209Z,0
2016-07-28T03:12:34.103Z,0
2016-07-28T03:13:19.185Z,0
2016-07-28T03:14:19.185Z,0
2016-07-28T03:15:19.189Z,0
2016-07-28T03:16:19.180Z,0
2016-07-28T03:18:35.246Z,0
2016-07-28T03:19:35.398Z,0
2016-07-28T03:20:19.588Z,5
2016-07-28T03:21:19.940Z,5
2016-07-28T03:22:19.444Z,5
2016-07-28T03:23:19.168Z,5
2016-07-28T03:24:19.180Z,5
2016-07-28T03:25:19.174Z,10
2016-07-28T03:26:19.187Z,10
2016-07-28T03:27:19.167Z,10
2016-07-28T03:28:19.173Z,10
2016-07-28T03:29:19.162Z,10
2016-07-28T03:30:19.170Z,10
2016-07-28T03:31:19.170Z,15
2016-07-28T03:32:19.174Z,15
2016-07-28T03:33:19.171Z,15
2016-07-28T03:34:19.170Z,15
2016-07-28T03:35:19.176Z,15
2016-07-28T03:36:19.165Z,15
2016-07-28T03:37:19.166Z,15
2016-07-28T03:38:19.168Z,15
2016-07-28T03:39:19.163Z,20
2016-07-28T03:40:19.162Z,20
2016-07-28T03:41:19.155Z,20
2016-07-28T03:42:19.164Z,20
2016-07-28T03:43:19.184Z,25
2016-07-28T03:44:19.158Z,25
2016-07-28T03:45:19.160Z,30
2016-07-28T03:46:19.160Z,30
2016-07-28T03:47:19.155Z,35
2016-07-28T03:48:19.160Z,35
2016-07-28T03:49:19.151Z,40
2016-07-28T03:50:19.206Z,45
2016-07-28T03:51:19.159Z,50
2016-07-28T03:52:19.155Z,55
2016-07-28T03:53:19.162Z,60
2016-07-28T03:54:19.152Z,60
2016-07-28T03:55:19.147Z,60
2016-07-28T03:56:19.149Z,60
2016-07-28T03:58:19.145Z,60
2016-07-28T03:59:19.141Z,60
2016-07-28T04:00:19.145Z,55
2016-07-28T04:01:19.148Z,60
2016-07-28T04:02:19.143Z,60
2016-07-28T04:03:19.139Z,60
2016-07-28T04:04:19.141Z,65
2016-07-28T04:05:19.148Z,70
2016-07-28T04:06:19.146Z,70
2016-07-28T04:07:19.141Z,70
2016-07-28T04:08:19.148Z,75
2016-07-28T04:09:19.150Z,75
2016-07-28T04:10:19.155Z,80
2016-07-28T04:11:19.140Z,80
2016-07-28T04:13:19.136Z,80
2016-07-28T04:14:19.132Z,85
2016-07-28T04:15:19.140Z,80
2016-07-28T04:16:19.133Z,85
2016-07-28T04:17:19.141Z,90
2016-07-28T04:18:19.144Z,95
2016-07-28T04:19:19.133Z,100
2016-07-28T04:20:19.142Z,105
2016-07-28T04:21:19.131Z,110
2016-07-28T04:22:19.152Z,120
2016-07-28T04:23:19.139Z,125
2016-07-28T04:24:19.128Z,120
2016-07-28T04:25:19.137Z,125
2016-07-28T04:26:35.903Z,125
2016-07-28T04:27:34.313Z,135
2016-07-28T04:29:34.454Z,145
2016-07-28T04:30:19.481Z,145
2016-07-28T04:31:19.134Z,150
2016-07-28T04:32:19.144Z,170
2016-07-28T04:33:19.134Z,175
2016-07-28T04:34:19.125Z,180
2016-07-28T04:35:21.041Z,195
2016-07-28T04:36:20.631Z,200
2016-07-28T04:37:19.986Z,205
2016-07-28T04:38:34.552Z,215
2016-07-28T04:39:19.891Z,225
2016-07-28T04:40:19.633Z,205
2016-07-28T04:41:19.135Z,200
2016-07-28T04:42:19.135Z,185
2016-07-28T04:43:19.832Z,215
2016-07-28T04:44:19.134Z,205
2016-07-28T04:45:19.140Z,225
2016-07-28T04:46:19.140Z,245
2016-07-28T04:47:19.131Z,250
2016-07-28T04:48:19.135Z,300
2016-07-28T04:49:19.146Z,285
2016-07-28T04:50:19.137Z,280
2016-07-28T04:51:19.137Z,270
2016-07-28T04:52:19.134Z,270
2016-07-28T04:53:19.137Z,290
2016-07-28T04:54:19.132Z,300
2016-07-28T04:55:19.134Z,310
2016-07-28T04:56:19.136Z,320
2016-07-28T04:57:19.138Z,385
2016-07-28T04:58:19.151Z,375
2016-07-28T04:59:19.141Z,380
2016-07-28T05:00:19.142Z,365
2016-07-28T05:01:19.154Z,410
2016-07-28T05:02:19.143Z,370
2016-07-28T05:03:21.380Z,355
2016-07-28T05:04:21.247Z,360
2016-07-28T05:05:20.895Z,340
2016-07-28T05:06:21.206Z,320
2016-07-28T05:07:19.161Z,305
2016-07-28T05:08:19.156Z,370
2016-07-28T05:09:19.373Z,425
2016-07-28T05:10:19.163Z,440
2016-07-28T05:11:19.215Z,490
2016-07-28T05:13:23.039Z,510
2016-07-28T05:14:21.736Z,490
2016-07-28T05:15:20.575Z,510
2016-07-28T05:16:19.178Z,525
2016-07-28T05:17:19.189Z,520
2016-07-28T05:18:20.037Z,535
2016-07-28T05:19:19.191Z,555
2016-07-28T05:20:19.200Z,595
2016-07-28T05:21:19.199Z,610
2016-07-28T05:22:19.208Z,595
2016-07-28T05:23:19.217Z,570
2016-07-28T05:24:19.229Z,555
2016-07-28T05:25:19.226Z,550
2016-07-28T05:26:19.224Z,580
2016-07-28T05:27:19.234Z,610
2016-07-28T05:28:19.232Z,620
2016-07-28T05:29:19.245Z,645
2016-07-28T05:30:19.245Z,645
2016-07-28T05:31:19.259Z,615
2016-07-28T05:32:19.273Z,690
2016-07-28T05:33:19.264Z,725
2016-07-28T05:34:19.279Z,715
2016-07-28T05:35:19.296Z,715
2016-07-28T05:36:19.304Z,710
2016-07-28T05:37:19.311Z,725
2016-07-28T05:38:19.316Z,745
2016-07-28T05:39:19.319Z,785
2016-07-28T05:40:19.317Z,760
2016-07-28T05:41:19.337Z,735
2016-07-28T05:42:19.337Z,775
2016-07-28T05:43:19.345Z,795
2016-07-28T05:44:35.178Z,845
2016-07-28T05:45:19.923Z,865
2016-07-28T05:46:20.324Z,870
2016-07-28T05:47:19.938Z,850
2016-07-28T05:48:20.943Z,905
2016-07-28T05:49:19.452Z,940
2016-07-28T05:51:19.436Z,1045
2016-07-28T05:52:19.434Z,1045
2016-07-28T05:53:20.098Z,1040
2016-07-28T05:54:35.479Z,1020
2016-07-28T05:55:34.782Z,1020
2016-07-28T05:57:20.055Z,1040
2016-07-28T05:58:20.540Z,1065
2016-07-28T05:59:20.605Z,1055
2016-07-28T06:00:19.524Z,1050
2016-07-28T06:01:19.520Z,1075
2016-07-28T06:02:19.537Z,1090
2016-07-28T06:03:19.550Z,1080
2016-07-28T06:04:19.558Z,1065
2016-07-28T06:05:19.564Z,1100
2016-07-28T06:06:19.579Z,1110
2016-07-28T06:07:19.602Z,1040
2016-07-28T06:08:19.621Z,1060
2016-07-28T06:09:19.616Z,1065
2016-07-28T06:10:19.628Z,975
2016-07-28T06:11:19.646Z,985
2016-07-28T06:12:19.655Z,1025
2016-07-28T06:13:19.675Z,975
2016-07-28T06:14:19.681Z,1015
2016-07-28T06:15:19.693Z,1085
2016-07-28T06:16:19.709Z,1160
2016-07-28T06:17:19.708Z,1120
2016-07-28T06:18:19.742Z,1175
2016-07-28T06:19:19.731Z,1155
2016-07-28T06:20:19.759Z,1255
2016-07-28T06:22:23.498Z,1305
2016-07-28T06:23:22.681Z,1305
2016-07-28T06:24:21.872Z,1315
2016-07-28T06:25:20.655Z,1330
2016-07-28T06:26:20.502Z,1355
2016-07-28T06:27:19.997Z,1380
2016-07-28T06:28:19.866Z,1390
2016-07-28T06:29:19.877Z,1385
2016-07-28T06:30:22.266Z,1415
2016-07-28T06:32:21.546Z,1340
2016-07-28T06:33:21.262Z,1260
2016-07-28T06:34:20.635Z,1240
2016-07-28T06:35:20.900Z,1275
2016-07-28T06:36:20.793Z,1390
2016-07-28T06:37:20.097Z,1490
2016-07-28T06:38:20.010Z,1540
2016-07-28T06:39:20.029Z,1540
2016-07-28T06:40:20.038Z,1560
2016-07-28T06:41:20.064Z,1570
2016-07-28T06:42:20.071Z,1605
2016-07-28T06:43:20.101Z,1585
2016-07-28T06:44:20.097Z,1595
2016-07-28T06:45:20.840Z,1590
2016-07-28T06:46:20.139Z,1635
2016-07-28T06:47:20.159Z,1645
2016-07-28T06:48:20.165Z,1620
2016-07-28T06:49:20.183Z,1575
2016-07-28T06:50:20.310Z,1575
2016-07-28T06:51:20.210Z,1550
2016-07-28T06:52:20.229Z,1600
2016-07-28T06:53:20.256Z,1695
2016-07-28T06:54:20.274Z,1745
2016-07-28T06:55:20.286Z,1775
2016-07-28T06:56:20.310Z,1725
2016-07-28T06:57:20.337Z,1685
2016-07-28T06:58:20.335Z,1685
2016-07-28T06:59:20.362Z,1675
2016-07-28T07:00:20.384Z,1685
2016-07-28T07:01:20.397Z,1715
2016-07-28T07:02:22.415Z,1740
2016-07-28T07:04:22.273Z,1795
2016-07-28T07:06:20.478Z,1820
2016-07-28T07:07:22.069Z,1870
2016-07-28T07:08:20.531Z,1910
2016-07-28T07:09:20.550Z,1915
2016-07-28T07:10:20.561Z,1905
2016-07-28T07:11:22.941Z,1835
2016-07-28T07:12:21.757Z,1850
2016-07-28T07:14:21.190Z,1850
2016-07-28T07:15:20.907Z,1895
2016-07-28T07:16:20.683Z,1930
2016-07-28T07:17:20.801Z,1960
2016-07-28T07:18:20.714Z,1955
2016-07-28T07:19:20.735Z,1975
2016-07-28T07:20:20.751Z,1935
2016-07-28T07:21:20.771Z,1900
2016-07-28T07:22:20.800Z,1880
2016-07-28T07:23:20.816Z,1905
2016-07-28T07:24:20.831Z,1935
2016-07-28T07:25:20.855Z,1905
2016-07-28T07:26:20.868Z,1915
2016-07-28T07:27:21.587Z,1905
2016-07-28T07:28:20.907Z,1910
2016-07-28T07:29:20.941Z,1920
2016-07-28T07:30:20.940Z,1880
2016-07-28T07:31:20.972Z,1865
2016-07-28T07:32:20.988Z,1850
2016-07-28T07:33:21.008Z,1895
2016-07-28T07:34:21.027Z,1820
2016-07-28T07:35:21.038Z,1690
2016-07-28T07:36:21.063Z,1865
2016-07-28T07:37:21.084Z,1890
2016-07-28T07:38:21.099Z,1895
2016-07-28T07:39:23.760Z,1960
2016-07-28T07:40:24.462Z,1935
2016-07-28T07:41:22.672Z,2030
2016-07-28T07:42:22.780Z,1985
2016-07-28T07:43:22.598Z,1480
2016-07-28T07:44:21.923Z,2030
2016-07-28T07:45:21.939Z,1960
2016-07-28T07:46:21.269Z,1855
2016-07-28T07:47:21.279Z,1795
2016-07-28T07:48:24.299Z,670
2016-07-28T07:49:26.739Z,630
2016-07-28T07:50:25.204Z,735
2016-07-28T07:51:22.375Z,1670
2016-07-28T07:52:22.648Z,1245
2016-07-28T07:53:21.627Z,1600
2016-07-28T07:54:22.263Z,1850
2016-07-28T07:55:22.136Z,960
2016-07-28T07:56:21.466Z,775
2016-07-28T07:57:21.478Z,645
2016-07-28T07:58:21.499Z,1530
2016-07-28T07:59:21.518Z,580
2016-07-28T08:00:21.537Z,630
2016-07-28T08:01:21.547Z,580
2016-07-28T08:02:21.579Z,545
2016-07-28T08:03:21.598Z,925
2016-07-28T08:04:21.605Z,565
2016-07-28T08:05:21.624Z,1640
2016-07-28T08:06:21.641Z,1755
2016-07-28T08:07:21.656Z,1700
2016-07-28T08:08:21.676Z,1780
2016-07-28T08:09:21.680Z,545
2016-07-28T08:10:21.696Z,535
2016-07-28T08:11:21.714Z,570
2016-07-28T08:12:21.729Z,580
2016-07-28T08:13:21.746Z,660
2016-07-28T08:14:21.762Z,620
2016-07-28T08:15:21.777Z,670
2016-07-28T08:16:21.790Z,635
2016-07-28T08:17:21.814Z,1710
2016-07-28T08:18:21.815Z,1755
2016-07-28T08:19:21.830Z,1750
2016-07-28T08:20:21.845Z,720
2016-07-28T08:21:38.527Z,555
2016-07-28T08:22:38.557Z,540
2016-07-28T08:23:22.493Z,530
2016-07-28T08:24:36.863Z,465
2016-07-28T08:25:22.728Z,460
2016-07-28T08:26:22.085Z,525
2016-07-28T08:27:21.951Z,650
2016-07-28T08:28:21.952Z,1725
2016-07-28T08:29:21.967Z,1805
2016-07-28T08:30:38.596Z,1670
2016-07-28T08:31:22.893Z,1785
2016-07-28T08:33:23.657Z,600
2016-07-28T08:34:22.726Z,865
2016-07-28T08:35:22.043Z,720
2016-07-28T08:36:22.403Z,580
2016-07-28T08:37:22.058Z,530
2016-07-28T08:38:22.086Z,1595
2016-07-28T08:39:22.092Z,715
2016-07-28T08:40:22.088Z,650
2016-07-28T08:41:22.102Z,840
2016-07-28T08:42:22.118Z,1930
2016-07-28T08:43:22.124Z,1945
2016-07-28T08:44:22.144Z,900
2016-07-28T08:45:22.147Z,2015
2016-07-28T08:46:22.169Z,1885
2016-07-28T08:47:22.167Z,1810
2016-07-28T08:48:22.187Z,1895
2016-07-28T08:49:22.189Z,1955
2016-07-28T08:50:22.251Z,1855
2016-07-28T08:51:22.228Z,1800
2016-07-28T08:52:22.236Z,1045
2016-07-28T08:53:22.243Z,680
2016-07-28T08:54:22.259Z,640
2016-07-28T08:55:22.290Z,610
2016-07-28T08:56:22.272Z,720
2016-07-28T08:59:26.428Z,805
2016-07-28T09:00:24.050Z,745
2016-07-28T09:01:24.790Z,705
2016-07-28T09:02:24.103Z,690
2016-07-28T09:03:22.581Z,630
2016-07-28T09:04:23.040Z,630
2016-07-28T09:05:22.584Z,635
2016-07-28T09:06:22.410Z,565
2016-07-28T09:07:24.069Z,570
2016-07-28T09:08:25.888Z,665
2016-07-28T09:09:24.032Z,520
2016-07-28T09:10:25.178Z,455
2016-07-28T09:11:22.453Z,420
2016-07-28T09:12:22.484Z,430
2016-07-28T09:14:22.490Z,650
2016-07-28T09:15:22.489Z,755
2016-07-28T09:16:22.503Z,725
2016-07-28T09:17:22.526Z,665
2016-07-28T09:18:22.525Z,580
2016-07-28T09:19:22.531Z,500
2016-07-28T09:20:22.542Z,425
2016-07-28T09:21:22.563Z,380
2016-07-28T09:22:22.582Z,370
2016-07-28T09:23:23.272Z,415
2016-07-28T09:24:22.580Z,500
2016-07-28T09:25:22.584Z,600
2016-07-28T09:26:22.609Z,660
2016-07-28T09:27:22.616Z,675
2016-07-28T09:29:22.633Z,685
2016-07-28T09:30:22.660Z,635
2016-07-28T09:31:22.642Z,620
2016-07-28T09:32:22.651Z,540
2016-07-28T09:33:22.670Z,515
2016-07-28T09:34:22.672Z,490
2016-07-28T09:35:22.689Z,425
2016-07-28T09:36:22.695Z,380
2016-07-28T09:37:22.701Z,375
2016-07-28T09:38:22.720Z,415
2016-07-28T09:39:37.986Z,580
2016-07-28T09:40:53.520Z,680
2016-07-28T09:42:23.546Z,730
2016-07-28T09:44:22.765Z,645
2016-07-28T09:45:23.079Z,660
2016-07-28T09:46:22.782Z,735
2016-07-28T09:47:22.788Z,745
2016-07-28T09:49:23.860Z,715
2016-07-28T09:50:38.986Z,715
2016-07-28T09:51:37.746Z,685
2016-07-28T09:52:22.926Z,645
2016-07-28T09:53:23.656Z,615
2016-07-28T09:54:22.870Z,600
2016-07-28T09:55:22.861Z,620
2016-07-28T09:56:22.872Z,620
2016-07-28T09:57:22.871Z,685
2016-07-28T09:59:22.901Z,720
2016-07-28T10:00:22.900Z,670
2016-07-28T10:01:22.904Z,650
2016-07-28T10:02:22.919Z,675
2016-07-28T10:03:22.919Z,700
2016-07-28T10:04:22.937Z,730
2016-07-28T10:05:22.953Z,740
2016-07-28T10:06:22.963Z,730
2016-07-28T10:07:22.961Z,685
2016-07-28T10:08:22.976Z,640
2016-07-28T10:09:22.991Z,650
2016-07-28T10:10:22.990Z,695
2016-07-28T10:11:22.995Z,665
2016-07-28T10:12:23.701Z,570
2016-07-28T10:13:23.023Z,510
2016-07-28T10:14:23.025Z,485
2016-07-28T10:15:23.041Z,520
2016-07-28T10:16:26.080Z,565
2016-07-28T10:17:24.706Z,630
2016-07-28T10:18:24.589Z,715
2016-07-28T10:19:24.938Z,700
2016-07-28T10:20:23.077Z,690
2016-07-28T10:21:23.087Z,665
2016-07-28T10:22:23.261Z,625
2016-07-28T10:23:23.390Z,570
2016-07-28T10:24:23.173Z,550
2016-07-28T10:25:24.662Z,580
2016-07-28T10:27:24.247Z,540
2016-07-28T10:29:23.571Z,365
2016-07-28T10:30:23.160Z,300
2016-07-28T10:31:23.179Z,260
2016-07-28T10:32:23.208Z,240
2016-07-28T10:34:23.200Z,205
2016-07-28T10:35:23.218Z,185
2016-07-28T10:36:23.220Z,175
2016-07-28T10:37:23.236Z,175
2016-07-28T10:38:23.246Z,185
2016-07-28T10:39:23.238Z,195
2016-07-28T10:40:23.243Z,200
2016-07-28T10:41:23.268Z,195
2016-07-28T10:42:23.268Z,205
2016-07-28T10:44:23.276Z,245
2016-07-28T10:45:23.293Z,245
2016-07-28T10:46:23.298Z,235
2016-07-28T10:47:23.994Z,225
2016-07-28T10:48:23.326Z,220
2016-07-28T10:49:23.328Z,225
2016-07-28T10:50:23.329Z,230
2016-07-28T10:51:23.443Z,250
2016-07-28T10:52:23.339Z,275
2016-07-28T10:53:23.352Z,305
2016-07-28T10:54:23.366Z,340
2016-07-28T10:55:23.358Z,370
2016-07-28T10:56:23.379Z,395
2016-07-28T10:57:39.098Z,435
2016-07-28T10:58:23.892Z,465
2016-07-28T10:59:24.547Z,525
2016-07-28T11:00:23.946Z,550
2016-07-28T11:01:23.506Z,570
2016-07-28T11:02:23.631Z,610
2016-07-28T11:03:23.437Z,635
2016-07-28T11:04:23.438Z,645
2016-07-28T11:05:23.441Z,595
2016-07-28T11:06:39.913Z,555
2016-07-28T11:07:38.564Z,570
2016-07-28T11:09:38.633Z,445
2016-07-28T11:11:23.476Z,355
2016-07-28T11:12:23.492Z,305
2016-07-28T11:14:23.601Z,275
2016-07-28T11:15:23.511Z,295
2016-07-28T11:16:23.523Z,315
2016-07-28T11:17:23.520Z,350
2016-07-28T11:18:23.524Z,380
2016-07-28T11:19:23.522Z,385
2016-07-28T11:20:23.540Z,385
2016-07-28T11:21:23.557Z,385
2016-07-28T11:22:23.565Z,380
2016-07-28T11:23:23.564Z,370
2016-07-28T11:24:23.573Z,355
2016-07-28T11:25:23.599Z,350
2016-07-28T11:26:23.585Z,350
2016-07-28T11:27:23.606Z,355
2016-07-28T11:28:24.300Z,360
2016-07-28T11:29:23.620Z,360
2016-07-28T11:30:23.643Z,365
2016-07-28T11:31:23.630Z,375
2016-07-28T11:32:23.641Z,395
2016-07-28T11:33:23.623Z,410
2016-07-28T11:34:26.768Z,435
2016-07-28T11:35:25.994Z,455
2016-07-28T11:36:26.770Z,470
2016-07-28T11:37:25.628Z,490
2016-07-28T11:38:23.665Z,510
2016-07-28T11:39:23.859Z,535
2016-07-28T11:40:23.681Z,545
2016-07-28T11:41:23.966Z,555
2016-07-28T11:42:23.693Z,570
2016-07-28T11:43:40.523Z,585
2016-07-28T11:44:27.094Z,595
2016-07-28T11:45:26.461Z,615
2016-07-28T11:46:25.854Z,660
2016-07-28T11:47:24.138Z,705
2016-07-28T11:48:24.888Z,745
2016-07-28T11:49:24.488Z,755
2016-07-28T11:50:23.753Z,765
2016-07-28T11:51:23.901Z,780
2016-07-28T11:52:23.769Z,800
2016-07-28T11:53:23.772Z,805
2016-07-28T11:54:23.803Z,790
2016-07-28T11:55:23.792Z,760
2016-07-28T11:56:23.794Z,725
2016-07-28T11:57:23.805Z,700
2016-07-28T11:58:23.820Z,700
2016-07-28T11:59:23.822Z,695
2016-07-28T12:00:23.835Z,680
2016-07-28T12:01:23.838Z,675
2016-07-28T12:02:23.854Z,675
2016-07-28T12:03:23.850Z,680
2016-07-28T12:04:23.867Z,725
2016-07-28T12:05:23.872Z,805
2016-07-28T12:06:23.879Z,830
2016-07-28T12:07:23.905Z,815
2016-07-28T12:08:23.904Z,790
2016-07-28T12:09:23.894Z,760
2016-07-28T12:10:24.608Z,730
2016-07-28T12:11:24.192Z,710
2016-07-28T12:12:23.930Z,700
2016-07-28T12:13:24.640Z,710
2016-07-28T12:14:23.943Z,720
2016-07-28T12:15:40.092Z,740
2016-07-28T12:17:39.092Z,760
2016-07-28T12:19:24.247Z,735
2016-07-28T12:20:24.098Z,715
2016-07-28T12:21:24.011Z,680
2016-07-28T12:22:24.018Z,660
2016-07-28T12:23:24.043Z,650
2016-07-28T12:25:24.904Z,705
2016-07-28T12:26:25.136Z,750
2016-07-28T12:27:38.988Z,755
2016-07-28T12:28:24.979Z,750
2016-07-28T12:29:24.532Z,735
2016-07-28T12:30:24.084Z,715
2016-07-28T12:31:24.108Z,685
2016-07-28T12:32:24.103Z,665
2016-07-28T12:33:24.132Z,645
2016-07-28T12:34:24.131Z,645
2016-07-28T12:36:24.844Z,670
2016-07-28T12:37:24.845Z,690
2016-07-28T12:38:24.168Z,705
2016-07-28T12:39:24.181Z,700
2016-07-28T12:40:24.191Z,690
2016-07-28T12:41:24.185Z,670
2016-07-28T12:42:24.207Z,645
2016-07-28T12:43:24.218Z,635
2016-07-28T12:44:24.228Z,615
2016-07-28T12:45:24.238Z,600
2016-07-28T12:46:24.242Z,595
2016-07-28T12:47:24.255Z,600
2016-07-28T12:48:24.259Z,605
2016-07-28T12:49:24.275Z,605
2016-07-28T12:50:24.277Z,605
2016-07-28T12:51:25.088Z,600
2016-07-28T12:52:26.547Z,595
2016-07-28T12:53:26.118Z,605
2016-07-28T12:54:26.034Z,605
2016-07-28T12:55:25.921Z,600
2016-07-28T12:56:25.396Z,590
2016-07-28T12:57:24.342Z,585
2016-07-28T12:58:24.342Z,585
2016-07-28T12:59:24.365Z,575
2016-07-28T13:00:25.068Z,595
2016-07-28T13:01:26.233Z,590
2016-07-28T13:02:26.906Z,580
2016-07-28T13:03:25.613Z,575
2016-07-28T13:04:26.010Z,580
2016-07-28T13:05:25.818Z,595
2016-07-28T13:06:24.499Z,605
2016-07-28T13:07:24.854Z,620
2016-07-28T13:08:24.452Z,630
2016-07-28T13:09:24.439Z,630
2016-07-28T13:10:24.455Z,635
2016-07-28T13:11:24.461Z,635
2016-07-28T13:12:24.491Z,640
2016-07-28T13:13:24.497Z,640
2016-07-28T13:14:24.484Z,630
2016-07-28T13:15:24.495Z,620
2016-07-28T13:16:24.516Z,615
2016-07-28T13:17:24.519Z,620
2016-07-28T13:18:24.530Z,625
2016-07-28T13:19:24.529Z,635
2016-07-28T13:20:24.549Z,640
2016-07-28T13:21:24.558Z,645
2016-07-28T13:22:24.564Z,650
2016-07-28T13:23:24.585Z,655
2016-07-28T13:24:24.585Z,655
2016-07-28T13:25:24.606Z,650
2016-07-28T13:26:24.594Z,645
2016-07-28T13:27:24.611Z,645
2016-07-28T13:28:24.612Z,635
2016-07-28T13:29:24.635Z,620
2016-07-28T13:30:24.631Z,605
2016-07-28T13:31:24.640Z,590
2016-07-28T13:32:24.653Z,580
2016-07-28T13:33:25.904Z,580
2016-07-28T13:34:24.915Z,590
2016-07-28T13:35:25.679Z,600
2016-07-28T13:36:40.960Z,610
2016-07-28T13:37:25.445Z,610
2016-07-28T13:38:24.944Z,610
2016-07-28T13:39:24.717Z,610
2016-07-28T13:40:24.716Z,615
2016-07-28T13:41:24.733Z,615
2016-07-28T13:42:24.736Z,595
2016-07-28T13:43:40.211Z,570
2016-07-28T13:44:55.233Z,520
2016-07-28T13:45:39.681Z,535
2016-07-28T13:46:26.367Z,520
2016-07-28T13:47:26.196Z,520
2016-07-28T13:48:24.992Z,520
2016-07-28T13:49:24.814Z,520
2016-07-28T13:50:24.803Z,520
2016-07-28T13:51:24.909Z,520
2016-07-28T13:52:24.821Z,520
2016-07-28T13:53:25.534Z,510
2016-07-28T13:54:24.849Z,505
2016-07-28T13:55:24.846Z,495
2016-07-28T13:56:24.873Z,485
2016-07-28T13:57:24.867Z,465
2016-07-28T13:58:24.877Z,465
2016-07-28T14:00:24.887Z,465
2016-07-28T14:01:24.903Z,470
2016-07-28T14:02:24.916Z,485
2016-07-28T14:03:24.916Z,490
2016-07-28T14:04:24.922Z,490
2016-07-28T14:05:24.931Z,480
2016-07-28T14:06:24.946Z,480
2016-07-28T14:07:24.953Z,480
2016-07-28T14:08:24.975Z,495
2016-07-28T14:09:24.975Z,500
2016-07-28T14:10:28.016Z,505
2016-07-28T14:12:28.042Z,505
2016-07-28T14:13:26.471Z,510
2016-07-28T14:15:25.022Z,515
2016-07-28T14:16:25.442Z,510
2016-07-28T14:17:25.431Z,500
2016-07-28T14:18:25.048Z,470
2016-07-28T14:19:25.057Z,455
2016-07-28T14:20:27.979Z,440
2016-07-28T14:21:27.434Z,415
2016-07-28T14:22:26.377Z,390
2016-07-28T14:23:26.003Z,365
2016-07-28T14:24:25.445Z,355
2016-07-28T14:25:25.111Z,350
2016-07-28T14:26:25.122Z,350
2016-07-28T14:27:25.127Z,355
2016-07-28T14:28:25.134Z,370
2016-07-28T14:30:25.146Z,410
2016-07-28T14:31:25.157Z,420
2016-07-28T14:32:25.169Z,430
2016-07-28T14:33:25.167Z,435
2016-07-28T14:34:25.184Z,440
2016-07-28T14:35:25.178Z,430
2016-07-28T14:36:25.197Z,430
2016-07-28T14:37:25.200Z,435
2016-07-28T14:38:25.206Z,450
2016-07-28T14:39:25.211Z,480
2016-07-28T14:40:25.225Z,495
2016-07-28T14:41:25.231Z,490